sensor_id;sensor_type;location;lat;lon;timestamp;temperature;humidity
16999;DHT22;10211;49.476;11.010;2023-04-29T00:00:01;11.20;99.90
16999;DHT22;10211;49.476;11.010;2023-04-29T00:02:29;11.30;99.90
16999;DHT22;10211;49.476;11.010;2023-04-29T00:04:57;11.30;99.90
16999;DHT22;10211;49.476;11.010;2023-04-29T00:07:24;11.30;99.90
16999;DHT22;10211;49.476;11.010;2023-04-29T00:09:50;11.30;99.90
16999;DHT22;10211;49.476;11.010;2023-04-29T00:12:17;11.20;99.90
16999;DHT22;10211;49.476;11.010;2023-04-29T00:14:44;11.20;99.90
16999;DHT22;10211;49.476;11.010;2023-04-29T00:17:11;11.20;99.90
16999;DHT22;10211;49.476;11.010;2023-04-29T00:19:39;11.10;99.90
16999;DHT22;10211;49.476;11.010;2023-04-29T00:22:06;11.10;99.90
16999;DHT22;10211;49.476;11.010;2023-04-29T00:24:33;11.00;99.90
16999;DHT22;10211;49.476;11.010;2023-04-29T00:27:00;11.00;99.90
16999;DHT22;10211;49.476;11.010;2023-04-29T00:29:27;10.90;99.90
16999;DHT22;10211;49.476;11.010;2023-04-29T00:31:54;10.80;99.90
16999;DHT22;10211;49.476;11.010;2023-04-29T00:34:21;10.80;99.90
16999;DHT22;10211;49.476;11.010;2023-04-29T00:36:49;10.70;99.90
16999;DHT22;10211;49.476;11.010;2023-04-29T00:39:16;10.70;99.90
16999;DHT22;10211;49.476;11.010;2023-04-29T00:41:43;10.70;99.90
16999;DHT22;10211;49.476;11.010;2023-04-29T00:44:10;10.80;99.90
16999;DHT22;10211;49.476;11.010;2023-04-29T00:46:37;10.80;99.90
16999;DHT22;10211;49.476;11.010;2023-04-29T00:49:03;10.90;99.90
16999;DHT22;10211;49.476;11.010;2023-04-29T00:51:30;10.90;99.90
16999;DHT22;10211;49.476;11.010;2023-04-29T00:53:59;11.00;99.90
16999;DHT22;10211;49.476;11.010;2023-04-29T00:56:26;11.00;99.90
16999;DHT22;10211;49.476;11.010;2023-04-29T00:58:56;11.00;99.90
16999;DHT22;10211;49.476;11.010;2023-04-29T01:01:24;11.00;99.90
16999;DHT22;10211;49.476;11.010;2023-04-29T01:03:50;11.00;99.90
16999;DHT22;10211;49.476;11.010;2023-04-29T01:06:24;11.00;99.90
16999;DHT22;10211;49.476;11.010;2023-04-29T01:09:08;10.90;99.90
16999;DHT22;10211;49.476;11.010;2023-04-29T01:11:53;10.90;99.90
16999;DHT22;10211;49.476;11.010;2023-04-29T01:14:22;10.80;99.90
16999;DHT22;10211;49.476;11.010;2023-04-29T01:16:51;10.80;99.90
16999;DHT22;10211;49.476;11.010;2023-04-29T01:19:32;10.80;99.90
16999;DHT22;10211;49.476;11.010;2023-04-29T01:22:04;10.80;99.90
16999;DHT22;10211;49.476;11.010;2023-04-29T01:24:32;10.80;99.90
16999;DHT22;10211;49.476;11.010;2023-04-29T01:27:07;10.80;99.90
16999;DHT22;10211;49.476;11.010;2023-04-29T01:29:41;10.80;99.90
16999;DHT22;10211;49.476;11.010;2023-04-29T01:32:14;10.80;99.90
16999;DHT22;10211;49.476;11.010;2023-04-29T01:34:48;10.80;99.90
16999;DHT22;10211;49.476;11.010;2023-04-29T01:37:21;10.80;99.90
16999;DHT22;10211;49.476;11.010;2023-04-29T01:39:59;10.80;99.90
16999;DHT22;10211;49.476;11.010;2023-04-29T01:42:33;10.80;99.90
16999;DHT22;10211;49.476;11.010;2023-04-29T01:45:05;10.70;99.90
16999;DHT22;10211;49.476;11.010;2023-04-29T01:47:32;10.70;99.90
16999;DHT22;10211;49.476;11.010;2023-04-29T01:49:59;10.70;99.90
16999;DHT22;10211;49.476;11.010;2023-04-29T01:52:26;10.70;99.90
16999;DHT22;10211;49.476;11.010;2023-04-29T01:54:55;10.60;99.90
16999;DHT22;10211;49.476;11.010;2023-04-29T01:57:22;10.60;99.90
16999;DHT22;10211;49.476;11.010;2023-04-29T01:59:48;10.60;99.90
16999;DHT22;10211;49.476;11.010;2023-04-29T02:02:15;10.50;99.90
16999;DHT22;10211;49.476;11.010;2023-04-29T02:04:45;10.50;99.90
16999;DHT22;10211;49.476;11.010;2023-04-29T02:07:13;10.50;99.90
16999;DHT22;10211;49.476;11.010;2023-04-29T02:09:39;10.60;99.90
16999;DHT22;10211;49.476;11.010;2023-04-29T02:12:07;10.60;99.90
16999;DHT22;10211;49.476;11.010;2023-04-29T02:14:34;10.60;99.90
16999;DHT22;10211;49.476;11.010;2023-04-29T02:17:01;10.70;99.90
16999;DHT22;10211;49.476;11.010;2023-04-29T02:19:28;10.70;99.90
16999;DHT22;10211;49.476;11.010;2023-04-29T02:21:54;10.80;99.90
16999;DHT22;10211;49.476;11.010;2023-04-29T02:24:21;10.80;99.90
16999;DHT22;10211;49.476;11.010;2023-04-29T02:26:48;10.90;99.90
16999;DHT22;10211;49.476;11.010;2023-04-29T02:29:16;10.90;99.90
16999;DHT22;10211;49.476;11.010;2023-04-29T02:31:42;11.00;99.90
16999;DHT22;10211;49.476;11.010;2023-04-29T02:34:09;11.00;99.90
16999;DHT22;10211;49.476;11.010;2023-04-29T02:36:36;11.00;99.90
16999;DHT22;10211;49.476;11.010;2023-04-29T02:39:03;11.10;99.90
16999;DHT22;10211;49.476;11.010;2023-04-29T02:41:29;11.10;99.90
16999;DHT22;10211;49.476;11.010;2023-04-29T02:43:56;11.20;99.90
16999;DHT22;10211;49.476;11.010;2023-04-29T02:46:24;11.20;99.90
16999;DHT22;10211;49.476;11.010;2023-04-29T02:48:51;11.20;99.90
16999;DHT22;10211;49.476;11.010;2023-04-29T02:51:18;11.30;99.90
16999;DHT22;10211;49.476;11.010;2023-04-29T02:53:45;11.30;99.90
16999;DHT22;10211;49.476;11.010;2023-04-29T02:56:11;11.30;99.90
16999;DHT22;10211;49.476;11.010;2023-04-29T02:58:38;11.00;99.90
16999;DHT22;10211;49.476;11.010;2023-04-29T03:01:06;11.30;99.90
16999;DHT22;10211;49.476;11.010;2023-04-29T03:03:34;11.30;99.90
16999;DHT22;10211;49.476;11.010;2023-04-29T03:06:01;11.30;99.90
16999;DHT22;10211;49.476;11.010;2023-04-29T03:08:28;11.30;99.90
16999;DHT22;10211;49.476;11.010;2023-04-29T03:10:54;11.30;99.90
16999;DHT22;10211;49.476;11.010;2023-04-29T03:13:21;11.80;99.90
16999;DHT22;10211;49.476;11.010;2023-04-29T03:15:48;11.30;99.90
16999;DHT22;10211;49.476;11.010;2023-04-29T03:18:14;11.40;99.90
16999;DHT22;10211;49.476;11.010;2023-04-29T03:20:43;11.40;99.90
16999;DHT22;10211;49.476;11.010;2023-04-29T03:23:09;11.40;99.90
16999;DHT22;10211;49.476;11.010;2023-04-29T03:25:36;11.40;99.90
16999;DHT22;10211;49.476;11.010;2023-04-29T03:28:03;11.40;99.90
16999;DHT22;10211;49.476;11.010;2023-04-29T03:30:29;11.40;99.90
16999;DHT22;10211;49.476;11.010;2023-04-29T03:32:56;11.40;99.90
16999;DHT22;10211;49.476;11.010;2023-04-29T03:35:23;11.50;99.90
16999;DHT22;10211;49.476;11.010;2023-04-29T03:37:51;11.50;99.90
16999;DHT22;10211;49.476;11.010;2023-04-29T03:40:18;11.50;99.90
16999;DHT22;10211;49.476;11.010;2023-04-29T03:42:44;11.50;99.90
16999;DHT22;10211;49.476;11.010;2023-04-29T03:45:11;11.50;99.90
16999;DHT22;10211;49.476;11.010;2023-04-29T03:47:38;11.50;99.90
16999;DHT22;10211;49.476;11.010;2023-04-29T03:50:06;11.50;99.90
16999;DHT22;10211;49.476;11.010;2023-04-29T03:52:33;11.50;99.90
16999;DHT22;10211;49.476;11.010;2023-04-29T03:55:03;11.50;99.90
16999;DHT22;10211;49.476;11.010;2023-04-29T03:57:30;11.50;99.90
16999;DHT22;10211;49.476;11.010;2023-04-29T03:59:57;11.40;99.90
16999;DHT22;10211;49.476;11.010;2023-04-29T04:02:23;11.40;99.90
16999;DHT22;10211;49.476;11.010;2023-04-29T04:04:50;11.50;99.90
16999;DHT22;10211;49.476;11.010;2023-04-29T04:07:19;11.40;99.90
16999;DHT22;10211;49.476;11.010;2023-04-29T04:09:46;11.40;99.90
16999;DHT22;10211;49.476;11.010;2023-04-29T04:12:14;11.40;99.90
16999;DHT22;10211;49.476;11.010;2023-04-29T04:14:40;11.30;99.90
16999;DHT22;10211;49.476;11.010;2023-04-29T04:17:07;11.30;99.90
16999;DHT22;10211;49.476;11.010;2023-04-29T04:19:34;11.30;99.90
16999;DHT22;10211;49.476;11.010;2023-04-29T04:22:02;11.30;99.90
16999;DHT22;10211;49.476;11.010;2023-04-29T04:24:29;11.30;99.90
16999;DHT22;10211;49.476;11.010;2023-04-29T04:26:56;11.30;99.90
16999;DHT22;10211;49.476;11.010;2023-04-29T04:29:24;11.40;99.90
16999;DHT22;10211;49.476;11.010;2023-04-29T04:31:50;11.40;99.90
16999;DHT22;10211;49.476;11.010;2023-04-29T04:34:17;11.40;99.90
16999;DHT22;10211;49.476;11.010;2023-04-29T04:36:44;11.50;99.90
16999;DHT22;10211;49.476;11.010;2023-04-29T04:39:11;11.50;99.90
16999;DHT22;10211;49.476;11.010;2023-04-29T04:41:38;11.50;99.90
16999;DHT22;10211;49.476;11.010;2023-04-29T04:44:04;11.50;99.90
16999;DHT22;10211;49.476;11.010;2023-04-29T04:46:32;11.60;99.90
16999;DHT22;10211;49.476;11.010;2023-04-29T04:48:59;11.60;99.90
16999;DHT22;10211;49.476;11.010;2023-04-29T04:51:26;11.70;99.90
16999;DHT22;10211;49.476;11.010;2023-04-29T04:53:53;11.70;99.90
16999;DHT22;10211;49.476;11.010;2023-04-29T04:56:20;11.70;99.90
16999;DHT22;10211;49.476;11.010;2023-04-29T04:58:47;11.70;99.90
16999;DHT22;10211;49.476;11.010;2023-04-29T05:01:14;11.70;99.90
16999;DHT22;10211;49.476;11.010;2023-04-29T05:03:42;11.80;99.90
16999;DHT22;10211;49.476;11.010;2023-04-29T05:06:08;11.80;99.90
16999;DHT22;10211;49.476;11.010;2023-04-29T05:08:35;11.90;99.90
16999;DHT22;10211;49.476;11.010;2023-04-29T05:11:02;11.90;99.90
16999;DHT22;10211;49.476;11.010;2023-04-29T05:13:29;12.00;99.90
16999;DHT22;10211;49.476;11.010;2023-04-29T05:15:55;12.10;99.90
16999;DHT22;10211;49.476;11.010;2023-04-29T05:18:22;12.10;99.90
16999;DHT22;10211;49.476;11.010;2023-04-29T05:20:50;12.20;99.90
16999;DHT22;10211;49.476;11.010;2023-04-29T05:23:17;12.30;99.90
16999;DHT22;10211;49.476;11.010;2023-04-29T05:25:43;12.40;99.90
16999;DHT22;10211;49.476;11.010;2023-04-29T05:28:10;12.40;99.90
16999;DHT22;10211;49.476;11.010;2023-04-29T05:30:37;12.40;99.90
16999;DHT22;10211;49.476;11.010;2023-04-29T05:33:03;12.40;99.90
16999;DHT22;10211;49.476;11.010;2023-04-29T05:35:30;12.50;99.90
16999;DHT22;10211;49.476;11.010;2023-04-29T05:37:58;12.60;99.90
16999;DHT22;10211;49.476;11.010;2023-04-29T05:40:25;12.70;99.90
16999;DHT22;10211;49.476;11.010;2023-04-29T05:42:52;12.80;99.90
16999;DHT22;10211;49.476;11.010;2023-04-29T05:45:19;12.90;99.90
16999;DHT22;10211;49.476;11.010;2023-04-29T05:47:46;13.00;99.90
16999;DHT22;10211;49.476;11.010;2023-04-29T05:50:13;13.00;99.90
16999;DHT22;10211;49.476;11.010;2023-04-29T05:52:39;13.30;99.90
16999;DHT22;10211;49.476;11.010;2023-04-29T05:55:08;13.10;99.90
16999;DHT22;10211;49.476;11.010;2023-04-29T05:57:35;13.10;99.90
16999;DHT22;10211;49.476;11.010;2023-04-29T06:00:02;13.20;99.90
16999;DHT22;10211;49.476;11.010;2023-04-29T06:02:31;13.30;99.90
16999;DHT22;10211;49.476;11.010;2023-04-29T06:04:58;13.40;99.90
16999;DHT22;10211;49.476;11.010;2023-04-29T06:07:26;13.50;99.90
16999;DHT22;10211;49.476;11.010;2023-04-29T06:09:53;13.60;99.90
16999;DHT22;10211;49.476;11.010;2023-04-29T06:12:22;13.60;99.90
16999;DHT22;10211;49.476;11.010;2023-04-29T06:14:49;13.60;99.90
16999;DHT22;10211;49.476;11.010;2023-04-29T06:17:16;13.60;99.90
16999;DHT22;10211;49.476;11.010;2023-04-29T06:19:43;13.60;99.90
16999;DHT22;10211;49.476;11.010;2023-04-29T06:22:10;13.60;99.90
16999;DHT22;10211;49.476;11.010;2023-04-29T06:24:36;13.50;99.90
16999;DHT22;10211;49.476;11.010;2023-04-29T06:27:03;13.50;99.90
16999;DHT22;10211;49.476;11.010;2023-04-29T06:29:31;13.50;99.90
16999;DHT22;10211;49.476;11.010;2023-04-29T06:31:58;13.40;99.90
16999;DHT22;10211;49.476;11.010;2023-04-29T06:34:25;13.30;99.90
16999;DHT22;10211;49.476;11.010;2023-04-29T06:36:51;13.20;99.90
16999;DHT22;10211;49.476;11.010;2023-04-29T06:39:18;13.30;99.90
16999;DHT22;10211;49.476;11.010;2023-04-29T06:41:45;13.20;99.90
16999;DHT22;10211;49.476;11.010;2023-04-29T06:44:12;13.20;99.90
16999;DHT22;10211;49.476;11.010;2023-04-29T06:46:40;13.30;99.90
16999;DHT22;10211;49.476;11.010;2023-04-29T06:49:07;13.30;99.90
16999;DHT22;10211;49.476;11.010;2023-04-29T06:51:35;13.50;99.90
16999;DHT22;10211;49.476;11.010;2023-04-29T06:54:02;13.70;99.90
16999;DHT22;10211;49.476;11.010;2023-04-29T06:56:29;13.80;99.90
16999;DHT22;10211;49.476;11.010;2023-04-29T06:58:56;14.00;99.90
16999;DHT22;10211;49.476;11.010;2023-04-29T07:01:22;14.10;99.90
16999;DHT22;10211;49.476;11.010;2023-04-29T07:03:50;14.20;99.90
16999;DHT22;10211;49.476;11.010;2023-04-29T07:06:17;14.20;99.90
16999;DHT22;10211;49.476;11.010;2023-04-29T07:08:44;14.10;99.90
16999;DHT22;10211;49.476;11.010;2023-04-29T07:11:10;14.20;99.90
16999;DHT22;10211;49.476;11.010;2023-04-29T07:13:37;14.30;99.90
16999;DHT22;10211;49.476;11.010;2023-04-29T07:16:05;14.40;99.90
16999;DHT22;10211;49.476;11.010;2023-04-29T07:18:39;14.40;99.90
16999;DHT22;10211;49.476;11.010;2023-04-29T07:21:07;14.40;99.90
16999;DHT22;10211;49.476;11.010;2023-04-29T07:23:34;14.50;99.90
16999;DHT22;10211;49.476;11.010;2023-04-29T07:26:08;14.60;99.90
16999;DHT22;10211;49.476;11.010;2023-04-29T07:28:35;14.60;99.90
16999;DHT22;10211;49.476;11.010;2023-04-29T07:31:02;14.60;99.90
16999;DHT22;10211;49.476;11.010;2023-04-29T07:33:28;14.30;99.90
16999;DHT22;10211;49.476;11.010;2023-04-29T07:35:55;14.20;99.90
16999;DHT22;10211;49.476;11.010;2023-04-29T07:38:23;14.20;99.90
16999;DHT22;10211;49.476;11.010;2023-04-29T07:40:50;14.30;99.90
16999;DHT22;10211;49.476;11.010;2023-04-29T07:43:17;14.40;99.90
16999;DHT22;10211;49.476;11.010;2023-04-29T07:45:44;14.30;99.90
16999;DHT22;10211;49.476;11.010;2023-04-29T07:48:11;14.30;99.90
16999;DHT22;10211;49.476;11.010;2023-04-29T07:50:37;14.20;99.90
16999;DHT22;10211;49.476;11.010;2023-04-29T07:53:04;14.20;99.90
16999;DHT22;10211;49.476;11.010;2023-04-29T07:55:33;14.10;99.90
16999;DHT22;10211;49.476;11.010;2023-04-29T07:57:59;14.10;99.90
16999;DHT22;10211;49.476;11.010;2023-04-29T08:00:26;14.20;99.90
16999;DHT22;10211;49.476;11.010;2023-04-29T08:02:54;14.40;99.90
16999;DHT22;10211;49.476;11.010;2023-04-29T08:05:22;14.70;99.90
16999;DHT22;10211;49.476;11.010;2023-04-29T08:07:48;15.00;99.90
16999;DHT22;10211;49.476;11.010;2023-04-29T08:10:16;15.40;99.90
16999;DHT22;10211;49.476;11.010;2023-04-29T08:12:46;15.80;99.90
16999;DHT22;10211;49.476;11.010;2023-04-29T08:15:13;16.20;99.90
16999;DHT22;10211;49.476;11.010;2023-04-29T08:17:40;16.40;99.90
16999;DHT22;10211;49.476;11.010;2023-04-29T08:20:07;16.20;99.90
16999;DHT22;10211;49.476;11.010;2023-04-29T08:22:34;15.80;99.90
16999;DHT22;10211;49.476;11.010;2023-04-29T08:25:02;15.60;99.90
16999;DHT22;10211;49.476;11.010;2023-04-29T08:27:29;15.50;99.90
16999;DHT22;10211;49.476;11.010;2023-04-29T08:29:57;15.40;99.90
16999;DHT22;10211;49.476;11.010;2023-04-29T08:32:24;15.30;99.90
16999;DHT22;10211;49.476;11.010;2023-04-29T08:34:51;15.10;99.90
16999;DHT22;10211;49.476;11.010;2023-04-29T08:37:17;15.00;99.90
16999;DHT22;10211;49.476;11.010;2023-04-29T08:39:45;15.00;99.90
16999;DHT22;10211;49.476;11.010;2023-04-29T08:42:12;14.90;99.90
16999;DHT22;10211;49.476;11.010;2023-04-29T08:44:40;14.90;99.90
16999;DHT22;10211;49.476;11.010;2023-04-29T08:47:09;15.00;99.90
16999;DHT22;10211;49.476;11.010;2023-04-29T08:49:36;15.00;99.90
16999;DHT22;10211;49.476;11.010;2023-04-29T08:52:03;15.00;99.90
16999;DHT22;10211;49.476;11.010;2023-04-29T08:54:30;15.00;99.90
16999;DHT22;10211;49.476;11.010;2023-04-29T08:56:57;15.10;99.90
16999;DHT22;10211;49.476;11.010;2023-04-29T08:59:27;15.30;99.90
16999;DHT22;10211;49.476;11.010;2023-04-29T09:01:55;15.50;99.90
16999;DHT22;10211;49.476;11.010;2023-04-29T09:04:31;15.70;99.90
16999;DHT22;10211;49.476;11.010;2023-04-29T09:07:03;15.90;99.90
16999;DHT22;10211;49.476;11.010;2023-04-29T09:09:30;16.00;99.90
16999;DHT22;10211;49.476;11.010;2023-04-29T09:11:58;15.80;99.90
16999;DHT22;10211;49.476;11.010;2023-04-29T09:14:25;15.80;99.90
16999;DHT22;10211;49.476;11.010;2023-04-29T09:16:51;15.70;99.90
16999;DHT22;10211;49.476;11.010;2023-04-29T09:19:30;15.90;99.90
16999;DHT22;10211;49.476;11.010;2023-04-29T09:21:57;16.00;99.90
16999;DHT22;10211;49.476;11.010;2023-04-29T09:24:25;15.90;99.90
16999;DHT22;10211;49.476;11.010;2023-04-29T09:26:52;15.80;99.90
16999;DHT22;10211;49.476;11.010;2023-04-29T09:29:19;15.90;99.90
16999;DHT22;10211;49.476;11.010;2023-04-29T09:31:47;15.80;99.90
16999;DHT22;10211;49.476;11.010;2023-04-29T09:34:14;15.70;99.90
16999;DHT22;10211;49.476;11.010;2023-04-29T09:36:44;15.70;99.90
16999;DHT22;10211;49.476;11.010;2023-04-29T09:39:12;15.80;99.90
16999;DHT22;10211;49.476;11.010;2023-04-29T09:41:41;15.70;99.90
16999;DHT22;10211;49.476;11.010;2023-04-29T09:44:08;16.10;99.90
16999;DHT22;10211;49.476;11.010;2023-04-29T09:46:36;16.30;99.90
16999;DHT22;10211;49.476;11.010;2023-04-29T09:49:04;16.80;99.90
16999;DHT22;10211;49.476;11.010;2023-04-29T09:51:53;17.30;99.90
16999;DHT22;10211;49.476;11.010;2023-04-29T09:54:20;17.90;99.90
16999;DHT22;10211;49.476;11.010;2023-04-29T09:56:48;18.40;99.90
16999;DHT22;10211;49.476;11.010;2023-04-29T09:59:16;19.20;99.90
16999;DHT22;10211;49.476;11.010;2023-04-29T10:01:43;19.60;98.50
16999;DHT22;10211;49.476;11.010;2023-04-29T10:04:10;19.90;97.20
16999;DHT22;10211;49.476;11.010;2023-04-29T10:06:38;20.10;96.10
16999;DHT22;10211;49.476;11.010;2023-04-29T10:09:12;20.10;95.10
16999;DHT22;10211;49.476;11.010;2023-04-29T10:11:40;19.50;94.40
16999;DHT22;10211;49.476;11.010;2023-04-29T10:14:12;18.80;94.80
16999;DHT22;10211;49.476;11.010;2023-04-29T10:16:44;18.50;96.10
16999;DHT22;10211;49.476;11.010;2023-04-29T10:19:14;18.40;96.00
16999;DHT22;10211;49.476;11.010;2023-04-29T10:21:44;18.70;96.50
16999;DHT22;10211;49.476;11.010;2023-04-29T10:24:14;18.90;95.80
16999;DHT22;10211;49.476;11.010;2023-04-29T10:26:43;18.70;94.80
16999;DHT22;10211;49.476;11.010;2023-04-29T10:29:10;18.60;95.50
16999;DHT22;10211;49.476;11.010;2023-04-29T10:31:39;18.10;95.40
16999;DHT22;10211;49.476;11.010;2023-04-29T10:34:06;17.40;96.30
16999;DHT22;10211;49.476;11.010;2023-04-29T10:36:34;17.10;97.40
16999;DHT22;10211;49.476;11.010;2023-04-29T10:39:03;16.80;97.70
16999;DHT22;10211;49.476;11.010;2023-04-29T10:41:35;17.00;98.20
16999;DHT22;10211;49.476;11.010;2023-04-29T10:44:03;17.00;98.10
16999;DHT22;10211;49.476;11.010;2023-04-29T10:46:30;17.20;98.60
16999;DHT22;10211;49.476;11.010;2023-04-29T10:49:00;17.40;97.00
16999;DHT22;10211;49.476;11.010;2023-04-29T10:51:29;17.60;96.40
16999;DHT22;10211;49.476;11.010;2023-04-29T10:53:58;17.80;96.10
16999;DHT22;10211;49.476;11.010;2023-04-29T10:56:39;17.70;96.50
16999;DHT22;10211;49.476;11.010;2023-04-29T10:59:11;17.90;96.40
16999;DHT22;10211;49.476;11.010;2023-04-29T11:01:41;18.00;95.90
16999;DHT22;10211;49.476;11.010;2023-04-29T11:04:08;17.90;95.70
16999;DHT22;10211;49.476;11.010;2023-04-29T11:06:41;17.50;96.40
16999;DHT22;10211;49.476;11.010;2023-04-29T11:09:11;16.90;97.20
16999;DHT22;10211;49.476;11.010;2023-04-29T11:11:41;16.50;98.40
16999;DHT22;10211;49.476;11.010;2023-04-29T11:14:09;16.40;99.00
16999;DHT22;10211;49.476;11.010;2023-04-29T11:16:36;16.60;98.50
16999;DHT22;10211;49.476;11.010;2023-04-29T11:19:04;16.80;98.00
16999;DHT22;10211;49.476;11.010;2023-04-29T11:21:33;17.00;97.70
16999;DHT22;10211;49.476;11.010;2023-04-29T11:24:00;17.10;97.90
16999;DHT22;10211;49.476;11.010;2023-04-29T11:26:27;17.30;97.90
16999;DHT22;10211;49.476;11.010;2023-04-29T11:28:55;17.40;97.10
16999;DHT22;10211;49.476;11.010;2023-04-29T11:31:25;17.50;97.00
16999;DHT22;10211;49.476;11.010;2023-04-29T11:33:53;17.50;96.90
16999;DHT22;10211;49.476;11.010;2023-04-29T11:36:20;17.40;97.00
16999;DHT22;10211;49.476;11.010;2023-04-29T11:38:47;17.40;97.20
16999;DHT22;10211;49.476;11.010;2023-04-29T11:41:14;17.40;96.50
16999;DHT22;10211;49.476;11.010;2023-04-29T11:43:41;17.30;96.40
16999;DHT22;10211;49.476;11.010;2023-04-29T11:46:12;17.20;96.80
16999;DHT22;10211;49.476;11.010;2023-04-29T11:48:45;16.90;96.60
16999;DHT22;10211;49.476;11.010;2023-04-29T11:51:13;16.70;96.40
16999;DHT22;10211;49.476;11.010;2023-04-29T11:53:40;16.30;97.40
16999;DHT22;10211;49.476;11.010;2023-04-29T11:56:07;16.00;98.30
16999;DHT22;10211;49.476;11.010;2023-04-29T11:58:34;15.90;98.60
16999;DHT22;10211;49.476;11.010;2023-04-29T12:01:02;15.70;98.50
16999;DHT22;10211;49.476;11.010;2023-04-29T12:03:32;15.80;98.70
16999;DHT22;10211;49.476;11.010;2023-04-29T12:06:01;15.80;98.30
16999;DHT22;10211;49.476;11.010;2023-04-29T12:08:29;15.70;98.20
16999;DHT22;10211;49.476;11.010;2023-04-29T12:10:58;15.90;98.50
16999;DHT22;10211;49.476;11.010;2023-04-29T12:13:27;15.80;99.00
16999;DHT22;10211;49.476;11.010;2023-04-29T12:15:55;15.70;98.50
16999;DHT22;10211;49.476;11.010;2023-04-29T12:18:22;15.70;98.70
16999;DHT22;10211;49.476;11.010;2023-04-29T12:20:50;15.70;98.70
16999;DHT22;10211;49.476;11.010;2023-04-29T12:23:18;15.70;98.40
16999;DHT22;10211;49.476;11.010;2023-04-29T12:25:48;15.70;98.40
16999;DHT22;10211;49.476;11.010;2023-04-29T12:28:16;15.70;98.70
16999;DHT22;10211;49.476;11.010;2023-04-29T12:30:43;15.80;98.60
16999;DHT22;10211;49.476;11.010;2023-04-29T12:33:15;15.80;98.50
16999;DHT22;10211;49.476;11.010;2023-04-29T12:35:41;15.90;98.40
16999;DHT22;10211;49.476;11.010;2023-04-29T12:38:09;16.40;98.50
16999;DHT22;10211;49.476;11.010;2023-04-29T12:40:39;16.50;98.20
16999;DHT22;10211;49.476;11.010;2023-04-29T12:43:10;16.20;98.00
16999;DHT22;10211;49.476;11.010;2023-04-29T12:45:38;16.20;97.90
16999;DHT22;10211;49.476;11.010;2023-04-29T12:48:05;16.00;97.50
16999;DHT22;10211;49.476;11.010;2023-04-29T12:50:33;16.00;97.10
16999;DHT22;10211;49.476;11.010;2023-04-29T12:53:01;15.60;97.40
16999;DHT22;10211;49.476;11.010;2023-04-29T12:55:31;15.60;97.80
16999;DHT22;10211;49.476;11.010;2023-04-29T12:57:58;15.50;98.00
16999;DHT22;10211;49.476;11.010;2023-04-29T13:00:25;15.40;98.20
16999;DHT22;10211;49.476;11.010;2023-04-29T13:02:52;15.40;98.40
16999;DHT22;10211;49.476;11.010;2023-04-29T13:05:19;15.40;98.30
16999;DHT22;10211;49.476;11.010;2023-04-29T13:07:46;15.50;98.30
16999;DHT22;10211;49.476;11.010;2023-04-29T13:10:13;15.60;98.50
16999;DHT22;10211;49.476;11.010;2023-04-29T13:12:42;15.80;98.30
16999;DHT22;10211;49.476;11.010;2023-04-29T13:15:09;16.10;98.30
16999;DHT22;10211;49.476;11.010;2023-04-29T13:17:36;16.30;97.50
16999;DHT22;10211;49.476;11.010;2023-04-29T13:20:04;16.50;97.00
16999;DHT22;10211;49.476;11.010;2023-04-29T13:22:31;16.80;96.30
16999;DHT22;10211;49.476;11.010;2023-04-29T13:24:58;17.10;96.20
16999;DHT22;10211;49.476;11.010;2023-04-29T13:27:25;17.30;95.00
16999;DHT22;10211;49.476;11.010;2023-04-29T13:29:53;17.50;94.10
16999;DHT22;10211;49.476;11.010;2023-04-29T13:32:20;17.60;93.90
16999;DHT22;10211;49.476;11.010;2023-04-29T13:34:48;17.70;93.70
16999;DHT22;10211;49.476;11.010;2023-04-29T13:37:15;17.70;93.60
16999;DHT22;10211;49.476;11.010;2023-04-29T13:39:42;17.40;93.20
16999;DHT22;10211;49.476;11.010;2023-04-29T13:42:09;16.90;93.60
16999;DHT22;10211;49.476;11.010;2023-04-29T13:44:36;16.60;94.20
16999;DHT22;10211;49.476;11.010;2023-04-29T13:47:04;16.50;94.60
16999;DHT22;10211;49.476;11.010;2023-04-29T13:49:31;16.50;94.30
16999;DHT22;10211;49.476;11.010;2023-04-29T13:51:58;16.60;94.40
16999;DHT22;10211;49.476;11.010;2023-04-29T13:54:24;16.80;94.80
16999;DHT22;10211;49.476;11.010;2023-04-29T13:56:51;16.90;93.70
16999;DHT22;10211;49.476;11.010;2023-04-29T13:59:18;17.00;93.90
16999;DHT22;10211;49.476;11.010;2023-04-29T14:01:44;16.90;94.10
16999;DHT22;10211;49.476;11.010;2023-04-29T14:04:12;16.90;93.50
16999;DHT22;10211;49.476;11.010;2023-04-29T14:06:41;17.00;93.50
16999;DHT22;10211;49.476;11.010;2023-04-29T14:09:08;17.00;93.40
16999;DHT22;10211;49.476;11.010;2023-04-29T14:11:35;17.10;93.20
16999;DHT22;10211;49.476;11.010;2023-04-29T14:14:01;17.10;93.30
16999;DHT22;10211;49.476;11.010;2023-04-29T14:16:28;17.40;93.00
16999;DHT22;10211;49.476;11.010;2023-04-29T14:18:55;17.30;93.10
16999;DHT22;10211;49.476;11.010;2023-04-29T14:21:23;17.30;93.20
16999;DHT22;10211;49.476;11.010;2023-04-29T14:23:50;17.10;93.10
16999;DHT22;10211;49.476;11.010;2023-04-29T14:26:18;16.80;93.80
16999;DHT22;10211;49.476;11.010;2023-04-29T14:28:44;16.50;93.60
16999;DHT22;10211;49.476;11.010;2023-04-29T14:31:11;16.30;94.00
16999;DHT22;10211;49.476;11.010;2023-04-29T14:33:39;16.00;94.20
16999;DHT22;10211;49.476;11.010;2023-04-29T14:36:06;15.80;94.90
16999;DHT22;10211;49.476;11.010;2023-04-29T14:38:34;15.60;95.40
16999;DHT22;10211;49.476;11.010;2023-04-29T14:41:01;15.40;95.60
16999;DHT22;10211;49.476;11.010;2023-04-29T14:43:27;15.30;96.20
16999;DHT22;10211;49.476;11.010;2023-04-29T14:45:54;15.20;96.70
16999;DHT22;10211;49.476;11.010;2023-04-29T14:48:21;15.10;96.80
16999;DHT22;10211;49.476;11.010;2023-04-29T14:50:48;15.10;97.00
16999;DHT22;10211;49.476;11.010;2023-04-29T14:53:15;15.10;97.20
16999;DHT22;10211;49.476;11.010;2023-04-29T14:55:43;15.00;97.60
16999;DHT22;10211;49.476;11.010;2023-04-29T14:58:09;15.00;97.80
16999;DHT22;10211;49.476;11.010;2023-04-29T15:00:36;15.00;98.00
16999;DHT22;10211;49.476;11.010;2023-04-29T15:03:03;15.00;98.10
16999;DHT22;10211;49.476;11.010;2023-04-29T15:05:30;15.10;98.20
16999;DHT22;10211;49.476;11.010;2023-04-29T15:07:57;15.10;98.20
16999;DHT22;10211;49.476;11.010;2023-04-29T15:10:25;15.20;98.00
16999;DHT22;10211;49.476;11.010;2023-04-29T15:12:53;15.30;98.00
16999;DHT22;10211;49.476;11.010;2023-04-29T15:15:20;15.30;97.90
16999;DHT22;10211;49.476;11.010;2023-04-29T15:17:47;15.40;98.10